eliuliang.com alexa rank chart, eliuliang.com alexa rank daily changes

eliuliang.com alexa rank chart, eliuliang.com alexa rank daily changes

eliuliang.com
Actual rank:
616 955

RANK HISTORY

Date Rank Diff
2018/04/21 616 955 +52 560
2018/04/20 564 395 -60 908
2018/04/19 625 303 +140 882
2018/04/17 484 421 +25 155
2018/04/16 459 266 -64 835
2018/04/14 524 101 -173 807
2018/04/13 697 908 +6 980
2018/04/12 690 928 -15 980
2018/04/11 706 908 +336 958
2018/04/10 369 950 +304 877
2018/04/09 65 073 +8 421
2018/04/06 56 652 -526 966
2018/04/04 583 618 +72 199
2018/04/03 511 419 -125 968
2018/04/01 637 387 -29 005
2018/03/31 666 392 -23 199
2018/03/28 689 591 +218 404
2018/03/27 471 187 +37 608
2018/03/26 433 579 -222 351
2018/03/24 655 930 -10 739
2018/03/23 666 669 +55 602
2018/03/22 611 067 +240 447
2018/03/21 370 620 -156 354
2018/03/20 526 974 -146 614
2018/03/17 673 588 +584 687
2018/03/16 88 901 -393 859
2018/03/15 482 760 -206 945
2018/03/14 689 705 +285 437
2018/03/13 404 268 -96 089
2018/03/12 500 357 -40 368
2018/03/10 540 725 +452 593
2018/03/09 88 132 -558 024
2018/03/08 646 156 +222 269
2018/03/06 423 887 -266 120
2018/03/03 690 007 +45 206
2018/02/28 644 801 +340 842
2018/02/24 303 959 -307 665
2018/02/23 611 624 +62 380
2018/02/22 549 244

WIDGET FOR YOUR SITE

DOMAINS WITH THE NEAREST RANK

Domain Rank
dyc.com.tw 616 950
ecf.com.tw 616 951
economycafe.com 616 952
egistec.com 616 953
ehanlin.com.tw 616 954
eliuliang.com 616 955
elsmf.com 616 956
esldewey.com.tw 616 957
fadely.com.tw 616 958
fanchuan.com.tw 616 959
fixafemaledog.tumblr.com 616 960

DOMAINS WITH THE NEAREST RANK BY TLD .com

Domain Rank
draw-dot.com 616 946
dreambition.com 616 947
dtobingod.com 616 949
economycafe.com 616 952
egistec.com 616 953
eliuliang.com 616 955
elsmf.com 616 956
free-business-card-templates.com 616 963
fsttaiwan.com 616 965
fun2tw.com 616 966
globaleagleradar.com 616 971